createdAt,value
2023-03-10T00:01:28.116Z,15.30
2023-03-10T00:03:56.758Z,13.40
2023-03-10T00:06:27.263Z,12.20
2023-03-10T00:08:55.198Z,12.20
2023-03-10T00:11:23.261Z,13.00
2023-03-10T00:13:51.857Z,12.60
2023-03-10T00:16:25.643Z,12.00
2023-03-10T00:18:53.882Z,12.70
2023-03-10T00:21:24.774Z,12.60
2023-03-10T00:23:52.816Z,12.40
2023-03-10T00:26:21.155Z,11.00
2023-03-10T00:28:49.260Z,13.00
2023-03-10T00:31:22.926Z,11.90
2023-03-10T00:33:52.378Z,11.80
2023-03-10T00:36:22.914Z,10.20
2023-03-10T00:38:51.112Z,12.90
2023-03-10T00:41:22.200Z,11.50
2023-03-10T00:43:50.563Z,12.70
2023-03-10T00:46:19.540Z,13.50
2023-03-10T00:48:47.862Z,11.90
2023-03-10T00:51:16.326Z,10.40
2023-03-10T00:53:44.522Z,11.70
2023-03-10T00:56:15.245Z,10.50
2023-03-10T00:58:43.699Z,11.50
2023-03-10T01:01:14.409Z,11.90
2023-03-10T01:03:42.638Z,10.90
2023-03-10T01:06:10.757Z,11.70
2023-03-10T01:08:38.733Z,13.40
2023-03-10T01:11:06.868Z,11.60
2023-03-10T01:13:34.925Z,11.50
2023-03-10T01:16:03.400Z,11.50
2023-03-10T01:18:31.361Z,11.10
2023-03-10T01:20:59.344Z,11.70
2023-03-10T01:23:27.735Z,11.40
2023-03-10T01:25:55.672Z,13.30
2023-03-10T01:28:23.666Z,13.70
2023-03-10T01:30:51.539Z,13.00
2023-03-10T01:33:19.572Z,12.90
2023-03-10T01:35:47.554Z,12.80
2023-03-10T01:38:15.530Z,12.60
2023-03-10T01:40:48.722Z,11.40
2023-03-10T01:43:19.815Z,13.20
2023-03-10T01:45:47.571Z,12.30
2023-03-10T01:48:17.115Z,13.90
2023-03-10T01:50:46.384Z,11.40
2023-03-10T01:53:15.308Z,12.60
2023-03-10T01:55:48.067Z,12.60
2023-03-10T01:58:18.280Z,12.60
2023-03-10T02:00:46.269Z,13.70
2023-03-10T02:03:22.218Z,12.40
2023-03-10T02:06:02.841Z,12.80
2023-03-10T02:08:34.276Z,13.20
2023-03-10T02:11:02.186Z,13.80
2023-03-10T02:13:30.632Z,13.10
2023-03-10T02:15:58.656Z,12.00
2023-03-10T02:18:26.779Z,13.50
2023-03-10T02:21:35.897Z,14.30
2023-03-10T02:24:13.602Z,10.90
2023-03-10T02:26:51.840Z,11.60
2023-03-10T02:29:29.268Z,13.10
2023-03-10T02:31:57.536Z,13.70
2023-03-10T02:34:25.577Z,12.10
2023-03-10T02:36:54.845Z,14.30
2023-03-10T02:39:22.974Z,15.90
2023-03-10T02:41:50.791Z,12.50
2023-03-10T02:44:21.731Z,15.70
2023-03-10T02:46:49.957Z,11.60
2023-03-10T02:49:17.886Z,15.50
2023-03-10T02:51:47.043Z,15.60
2023-03-10T02:54:17.037Z,14.40
2023-03-10T02:56:45.697Z,14.40
2023-03-10T02:59:15.159Z,13.70
2023-03-10T03:01:47.103Z,13.40
2023-03-10T03:04:15.635Z,13.60
2023-03-10T03:06:44.199Z,13.90
2023-03-10T03:09:12.727Z,15.00
2023-03-10T03:11:41.573Z,15.30
2023-03-10T03:14:10.124Z,14.30
2023-03-10T03:16:38.749Z,14.80
2023-03-10T03:19:08.382Z,13.30
2023-03-10T03:21:37.920Z,14.30
2023-03-10T03:24:06.269Z,15.90
2023-03-10T03:26:34.606Z,14.20
2023-03-10T03:29:12.067Z,15.50
2023-03-10T03:31:41.280Z,15.70
2023-03-10T03:34:16.716Z,15.80
2023-03-10T03:36:45.253Z,13.30
2023-03-10T03:39:17.516Z,14.10
2023-03-10T03:41:47.064Z,15.50
2023-03-10T03:44:16.277Z,14.70
2023-03-10T03:46:44.346Z,14.70
2023-03-10T03:49:12.475Z,12.10
2023-03-10T03:51:40.719Z,16.00
2023-03-10T03:54:09.798Z,17.10
2023-03-10T03:56:38.346Z,15.30
2023-03-10T03:59:06.766Z,16.40
2023-03-10T04:01:35.596Z,15.30
2023-03-10T04:04:04.590Z,16.20
2023-03-10T04:06:32.610Z,15.80
2023-03-10T04:09:00.850Z,15.70
2023-03-10T04:11:30.742Z,15.10
2023-03-10T04:13:58.681Z,16.50
2023-03-10T04:16:27.292Z,15.20
2023-03-10T04:18:55.464Z,16.70
2023-03-10T04:21:24.734Z,16.00
2023-03-10T04:23:53.249Z,17.80
2023-03-10T04:26:24.795Z,15.40
2023-03-10T04:28:53.029Z,14.30
2023-03-10T04:31:21.532Z,15.50
2023-03-10T04:33:51.387Z,16.00
2023-03-10T04:36:20.053Z,15.70
2023-03-10T04:38:49.601Z,16.20
2023-03-10T04:41:18.040Z,17.10
2023-03-10T04:43:48.167Z,15.60
2023-03-10T04:46:17.788Z,16.10
2023-03-10T04:48:46.650Z,16.10
2023-03-10T04:51:15.339Z,16.30
2023-03-10T04:53:48.189Z,16.50
2023-03-10T04:56:16.738Z,17.80
2023-03-10T04:58:44.773Z,17.00
2023-03-10T05:01:14.256Z,14.10
2023-03-10T05:03:46.172Z,17.80
2023-03-10T05:06:18.176Z,16.70
2023-03-10T05:08:49.560Z,16.80
2023-03-10T05:11:18.448Z,19.30
2023-03-10T05:13:46.836Z,16.70
2023-03-10T05:16:17.271Z,16.60
2023-03-10T05:18:46.302Z,16.20
2023-03-10T05:21:15.513Z,15.80
2023-03-10T05:23:44.001Z,17.80
2023-03-10T05:26:13.798Z,14.90
2023-03-10T05:28:41.949Z,16.80
2023-03-10T05:31:15.453Z,15.60
2023-03-10T05:33:45.098Z,16.70
2023-03-10T05:36:14.971Z,18.00
2023-03-10T05:38:44.785Z,14.90
2023-03-10T05:41:14.856Z,16.80
2023-03-10T05:43:43.309Z,15.20
2023-03-10T05:46:12.613Z,16.90
2023-03-10T05:48:45.632Z,15.00
2023-03-10T08:40:27.729Z,6.20
2023-03-10T08:42:54.273Z,4.50
2023-03-10T08:45:21.000Z,3.30
2023-03-10T08:47:47.682Z,3.30
2023-03-10T08:50:19.734Z,3.20
2023-03-10T08:52:46.262Z,3.70
2023-03-10T08:55:13.063Z,3.30
2023-03-10T08:57:39.638Z,3.20
2023-03-10T09:00:09.728Z,3.20
2023-03-10T09:02:36.142Z,2.80
2023-03-10T09:05:03.535Z,3.50
2023-03-10T09:07:30.225Z,3.30
2023-03-10T09:09:56.788Z,3.20
2023-03-10T09:12:23.164Z,3.10
2023-03-10T09:14:49.758Z,3.00
2023-03-10T09:17:16.217Z,2.60
2023-03-10T09:19:43.033Z,2.50
2023-03-10T09:22:09.617Z,2.40
2023-03-10T09:24:36.280Z,2.70
2023-03-10T09:27:02.850Z,2.60
2023-03-10T09:29:42.542Z,2.70
2023-03-10T09:32:09.809Z,2.40
2023-03-10T09:34:36.676Z,2.40
2023-03-10T09:37:04.331Z,2.00
2023-03-10T09:39:30.698Z,2.00
2023-03-10T09:42:38.700Z,2.20
2023-03-10T09:45:37.582Z,1.90
2023-03-10T09:48:11.138Z,2.10
2023-03-10T09:50:47.302Z,1.90
2023-03-10T09:53:49.702Z,1.90
2023-03-10T09:56:23.621Z,1.70
2023-03-10T09:58:59.589Z,1.60
2023-03-10T10:04:37.326Z,2.10
2023-03-10T10:07:10.797Z,1.80
2023-03-10T10:09:47.313Z,2.20
2023-03-10T10:12:16.726Z,2.20
2023-03-10T10:14:55.095Z,2.60
2023-03-10T10:17:56.506Z,2.20
2023-03-10T10:20:31.973Z,2.10
2023-03-10T10:22:58.895Z,2.50
2023-03-10T10:25:30.368Z,2.50
2023-03-10T10:27:57.536Z,2.00
2023-03-10T10:30:35.133Z,2.10
2023-03-10T10:33:17.412Z,1.70
2023-03-10T10:36:01.776Z,1.50
2023-03-10T10:38:30.169Z,1.70
2023-03-10T10:41:01.445Z,1.00
2023-03-10T10:43:28.246Z,1.20
2023-03-10T10:45:58.073Z,1.00
2023-03-10T10:48:42.746Z,1.20
2023-03-10T10:51:28.161Z,1.50
2023-03-10T10:54:46.689Z,1.40
2023-03-10T10:57:38.165Z,1.60
2023-03-10T11:00:37.601Z,1.00
2023-03-10T11:03:32.638Z,1.30
2023-03-10T11:06:00.286Z,1.30
2023-03-10T11:08:27.081Z,1.20
2023-03-10T11:11:28.835Z,1.20
2023-03-10T11:14:12.923Z,1.10
2023-03-10T11:16:48.703Z,0.90
2023-03-10T11:19:27.776Z,2.20
2023-03-10T11:22:00.072Z,1.60
2023-03-10T11:24:52.616Z,1.10
2023-03-10T11:27:56.492Z,1.00
2023-03-10T11:30:37.439Z,1.20
2023-03-10T11:33:34.616Z,1.30
2023-03-10T11:36:56.443Z,0.90
2023-03-10T11:39:48.425Z,0.90
2023-03-10T11:42:25.871Z,1.20
2023-03-10T11:45:18.932Z,0.70
2023-03-10T11:48:26.819Z,1.20
2023-03-10T11:50:59.468Z,1.30
2023-03-10T11:53:47.324Z,1.30
2023-03-10T11:56:15.069Z,1.90
2023-03-10T11:58:57.736Z,1.80
2023-03-10T12:01:33.646Z,1.60
2023-03-10T12:04:17.238Z,1.30
2023-03-10T12:07:14.838Z,1.10
2023-03-10T12:09:57.022Z,1.00
2023-03-10T12:12:31.389Z,0.90
2023-03-10T12:15:00.387Z,1.00
2023-03-10T12:17:26.823Z,1.90
2023-03-10T12:20:15.418Z,1.60
2023-03-10T12:22:44.766Z,1.90
2023-03-10T12:25:29.995Z,1.00
2023-03-10T12:28:15.242Z,1.70
2023-03-10T12:31:30.441Z,1.10
2023-03-10T12:34:23.429Z,2.00
2023-03-10T12:36:51.969Z,1.10
2023-03-10T12:39:27.713Z,1.10
2023-03-10T12:41:59.108Z,1.60
2023-03-10T12:44:48.885Z,1.60
2023-03-10T12:47:34.555Z,1.30
2023-03-10T12:50:05.666Z,0.80
2023-03-10T12:52:44.435Z,1.30
2023-03-10T12:55:27.957Z,1.00
2023-03-10T12:58:13.160Z,1.40
2023-03-10T13:00:50.197Z,1.40
2023-03-10T13:03:45.950Z,2.10
2023-03-10T13:06:12.670Z,2.60
2023-03-10T13:09:01.963Z,2.60
2023-03-10T13:12:35.670Z,1.60
2023-03-10T13:15:07.781Z,1.80
2023-03-10T13:17:36.993Z,1.50
2023-03-10T13:20:13.732Z,1.80
2023-03-10T13:22:40.327Z,1.30
2023-03-10T13:25:13.223Z,1.20
2023-03-10T13:27:39.873Z,2.00
2023-03-10T13:30:21.580Z,1.40
2023-03-10T13:32:56.953Z,2.60
2023-03-10T13:35:28.973Z,1.40
2023-03-10T13:38:10.964Z,1.20
2023-03-10T13:40:40.966Z,0.90
2023-03-10T13:43:43.664Z,0.90
2023-03-10T13:46:32.635Z,1.00
2023-03-10T13:49:05.776Z,1.10
2023-03-10T13:51:34.805Z,1.80
2023-03-10T13:54:32.736Z,1.30
2023-03-10T13:57:31.668Z,1.70
2023-03-10T13:59:58.491Z,2.80
2023-03-10T14:02:29.784Z,1.20
2023-03-10T14:04:57.927Z,1.10
2023-03-10T14:07:27.467Z,1.60
2023-03-10T14:10:07.236Z,1.80
2023-03-10T14:12:54.229Z,0.90
2023-03-10T14:15:27.068Z,1.60
2023-03-10T14:18:05.886Z,1.30
2023-03-10T14:20:34.688Z,2.30
2023-03-10T14:23:21.862Z,2.70
2023-03-10T14:25:51.223Z,2.00
2023-03-10T14:28:28.815Z,1.60
2023-03-10T14:31:02.147Z,2.10
2023-03-10T14:33:28.726Z,3.40
2023-03-10T14:35:55.504Z,5.60
2023-03-10T14:38:22.101Z,2.10
2023-03-10T14:40:53.354Z,1.30
2023-03-10T14:43:25.389Z,1.50
2023-03-10T14:45:55.682Z,1.50
2023-03-10T14:48:25.313Z,1.50
2023-03-10T14:50:52.408Z,0.90
2023-03-10T14:53:23.387Z,1.20
2023-03-10T14:55:52.425Z,1.10
2023-03-10T14:58:34.793Z,1.50
2023-03-10T15:01:04.640Z,1.40
2023-03-10T15:03:32.455Z,1.50
2023-03-10T15:05:58.935Z,1.10
2023-03-10T15:08:25.432Z,0.90
2023-03-10T15:10:54.876Z,1.10
2023-03-10T15:13:23.353Z,1.20
2023-03-10T15:15:49.872Z,0.90
2023-03-10T15:18:22.090Z,0.80
2023-03-10T15:20:48.871Z,0.90
2023-03-10T15:23:19.295Z,1.10
2023-03-10T15:25:47.793Z,1.40
2023-03-10T15:28:14.549Z,1.10
2023-03-10T15:30:41.947Z,1.50
2023-03-10T15:33:10.313Z,1.20
2023-03-10T15:35:40.983Z,2.10
2023-03-10T15:38:07.985Z,2.20
2023-03-10T15:40:38.194Z,1.90
2023-03-10T15:43:04.900Z,1.70
2023-03-10T15:45:32.076Z,3.00
2023-03-10T15:47:58.607Z,2.70
2023-03-10T15:50:25.222Z,2.80
2023-03-10T15:52:57.416Z,2.50
2023-03-10T15:55:25.570Z,3.50
2023-03-10T15:57:52.098Z,4.10
2023-03-10T16:00:20.744Z,5.30
2023-03-10T16:02:47.967Z,3.90
2023-03-10T16:05:15.418Z,7.10
2023-03-10T16:07:42.168Z,4.80
2023-03-10T16:10:15.393Z,4.30
2023-03-10T16:12:41.982Z,4.80
2023-03-10T16:15:09.841Z,6.90
2023-03-10T16:17:36.369Z,6.60
2023-03-10T16:20:11.277Z,4.20
2023-03-10T16:22:40.830Z,2.70
2023-03-10T16:25:14.593Z,2.40
2023-03-10T16:27:43.293Z,2.50
2023-03-10T16:30:12.377Z,2.50
2023-03-10T16:32:38.935Z,2.00
2023-03-10T16:35:08.202Z,2.70
2023-03-10T16:37:34.892Z,2.60
2023-03-10T16:46:16.828Z,3.70
2023-03-10T16:48:45.066Z,3.90
2023-03-10T16:51:25.560Z,5.40
2023-03-10T16:53:54.959Z,4.70
2023-03-10T16:56:24.270Z,6.00
2023-03-10T16:58:52.239Z,8.80
2023-03-10T17:01:19.939Z,10.20
2023-03-10T17:03:48.210Z,10.90
2023-03-10T17:06:19.484Z,12.00
2023-03-10T17:08:45.912Z,13.00
2023-03-10T17:11:21.665Z,15.00
2023-03-10T17:13:49.095Z,20.70
2023-03-10T17:16:16.912Z,22.40
2023-03-10T17:18:43.908Z,23.20
2023-03-10T17:21:16.477Z,23.50
2023-03-10T17:23:43.908Z,26.70
2023-03-10T17:26:11.411Z,27.20
2023-03-10T17:28:38.101Z,23.40
2023-03-10T17:31:27.823Z,22.90
2023-03-10T17:33:59.279Z,22.40
2023-03-10T17:36:26.176Z,24.80
2023-03-10T17:38:57.409Z,30.20
2023-03-10T17:41:23.916Z,34.30
2023-03-10T17:43:50.387Z,36.00
2023-03-10T17:46:20.257Z,35.90
2023-03-10T17:48:46.891Z,32.80
2023-03-10T17:51:18.277Z,29.70
2023-03-10T17:53:45.139Z,29.70
2023-03-10T17:56:12.067Z,39.20
2023-03-10T17:58:38.627Z,31.10
2023-03-10T18:01:09.984Z,32.40
2023-03-10T18:03:36.604Z,34.20
2023-03-10T18:06:04.119Z,36.30
2023-03-10T18:08:30.659Z,36.10
2023-03-10T18:11:01.616Z,46.20
2023-03-10T18:13:28.187Z,50.80
2023-03-10T18:15:54.827Z,53.50
2023-03-10T18:18:21.459Z,58.30
2023-03-10T18:20:48.152Z,59.80
2023-03-10T18:23:16.624Z,60.40
2023-03-10T18:25:43.290Z,53.70
2023-03-10T18:28:11.670Z,52.50
2023-03-10T18:30:41.601Z,52.90
2023-03-10T18:33:10.335Z,52.70
2023-03-10T18:35:42.114Z,50.50
2023-03-10T18:38:10.926Z,48.40
2023-03-10T18:40:37.562Z,51.10
2023-03-10T18:43:04.184Z,52.20
2023-03-10T18:45:33.174Z,49.80
2023-03-10T18:48:03.128Z,46.60
2023-03-10T18:50:29.708Z,44.80
2023-03-10T18:52:56.360Z,37.10
2023-03-10T18:55:23.254Z,42.30
2023-03-10T18:57:49.831Z,43.00
2023-03-10T19:00:17.734Z,37.00
2023-03-10T19:02:44.280Z,38.10
2023-03-10T19:05:14.730Z,38.10
2023-03-10T19:07:41.556Z,31.00
2023-03-10T19:10:10.728Z,36.20
2023-03-10T19:12:37.410Z,30.40
2023-03-10T19:15:08.235Z,27.70
2023-03-10T19:17:35.529Z,26.90
2023-03-10T19:20:02.116Z,28.30
2023-03-10T19:22:29.602Z,27.50
2023-03-10T19:24:56.079Z,23.30
2023-03-10T19:27:22.527Z,20.10
2023-03-10T19:29:52.215Z,20.90
2023-03-10T19:32:19.267Z,19.50
2023-03-10T19:34:45.944Z,18.30
2023-03-10T19:37:12.476Z,18.00
2023-03-10T19:39:38.915Z,15.90
2023-03-10T19:42:05.704Z,14.40
2023-03-10T19:44:32.520Z,12.60
2023-03-10T19:46:59.443Z,13.00
2023-03-10T19:49:25.980Z,12.20
2023-03-10T19:51:52.302Z,12.10
2023-03-10T19:54:18.749Z,12.60
2023-03-10T19:56:45.248Z,13.80
2023-03-10T19:59:11.718Z,13.00
2023-03-10T20:01:39.648Z,13.00
2023-03-10T20:04:06.055Z,11.10
2023-03-10T20:06:32.489Z,10.50
2023-03-10T20:08:58.941Z,10.70
2023-03-10T20:11:25.333Z,11.10
2023-03-10T20:13:52.064Z,11.00
2023-03-10T20:16:19.606Z,9.90
2023-03-10T20:18:46.311Z,10.20
2023-03-10T20:21:13.496Z,10.70
2023-03-10T20:23:40.082Z,9.30
2023-03-10T20:26:08.178Z,8.70
2023-03-10T20:28:35.807Z,11.00
2023-03-10T20:31:02.261Z,11.00
2023-03-10T20:33:28.809Z,10.90
2023-03-10T20:35:55.184Z,11.70
2023-03-10T20:38:21.566Z,13.40
2023-03-10T20:40:48.029Z,14.20
2023-03-10T20:43:14.804Z,12.70
2023-03-10T20:45:41.925Z,12.10
2023-03-10T20:48:08.599Z,12.90
2023-03-10T20:50:35.096Z,12.80
2023-03-10T20:53:02.030Z,14.20
2023-03-10T20:55:30.264Z,14.70
2023-03-10T20:57:59.260Z,13.20
2023-03-10T21:00:26.975Z,12.20
2023-03-10T21:02:56.203Z,10.60
2023-03-10T21:05:24.851Z,8.10
2023-03-10T21:07:51.364Z,7.90
2023-03-10T21:10:17.811Z,8.10
2023-03-10T21:12:44.435Z,7.00
2023-03-10T21:15:18.843Z,7.30
2023-03-10T21:17:47.783Z,8.40
2023-03-10T21:20:17.414Z,7.70
2023-03-10T21:22:44.253Z,8.10
2023-03-10T21:25:15.038Z,9.90
2023-03-10T21:27:41.394Z,9.90
2023-03-10T21:30:09.263Z,9.60
2023-03-10T21:32:36.415Z,10.30
2023-03-10T21:35:03.861Z,9.60
2023-03-10T21:37:30.586Z,10.80
2023-03-10T21:39:57.373Z,11.00
2023-03-10T21:42:23.780Z,9.90
2023-03-10T21:44:56.041Z,11.10
2023-03-10T21:47:22.556Z,10.20
2023-03-10T21:49:49.050Z,10.90
2023-03-10T21:52:15.537Z,10.50
2023-03-10T21:54:42.748Z,9.50
2023-03-10T21:57:09.229Z,9.50
2023-03-10T21:59:35.907Z,9.60
2023-03-10T22:02:02.892Z,8.00
2023-03-10T22:04:29.501Z,9.50
2023-03-10T22:06:55.948Z,8.60
2023-03-10T22:09:22.430Z,8.60
2023-03-10T22:11:48.945Z,8.00
2023-03-10T22:14:15.376Z,8.60
2023-03-10T22:16:41.750Z,7.80
2023-03-10T22:19:08.066Z,8.20
2023-03-10T22:21:34.581Z,6.50
2023-03-10T22:24:02.452Z,5.60
2023-03-10T22:26:28.931Z,4.70
2023-03-10T22:28:55.543Z,5.00
2023-03-10T22:31:23.050Z,4.30
2023-03-10T22:33:49.507Z,4.30
2023-03-10T22:36:17.797Z,4.50
2023-03-10T22:38:44.265Z,3.80
2023-03-10T22:41:10.988Z,3.30
2023-03-10T22:43:37.462Z,4.10
2023-03-10T22:46:11.078Z,4.00
2023-03-10T22:48:39.065Z,3.80
2023-03-10T22:51:10.083Z,3.40
2023-03-10T22:53:37.998Z,3.70
2023-03-10T22:56:05.350Z,3.70
2023-03-10T22:58:31.689Z,3.40
2023-03-10T23:00:58.355Z,4.00
2023-03-10T23:03:24.731Z,3.80
2023-03-10T23:05:51.376Z,3.70
2023-03-10T23:08:17.866Z,3.60
2023-03-10T23:10:44.510Z,3.30
2023-03-10T23:13:13.636Z,3.20
2023-03-10T23:15:40.061Z,3.40
2023-03-10T23:18:07.220Z,3.10
2023-03-10T23:20:37.680Z,3.00
2023-03-10T23:23:04.634Z,2.90
2023-03-10T23:25:39.084Z,2.80
2023-03-10T23:28:06.948Z,3.00
2023-03-10T23:30:34.670Z,2.60
2023-03-10T23:33:01.299Z,2.80
2023-03-10T23:35:30.198Z,2.60
2023-03-10T23:37:56.891Z,2.70
2023-03-10T23:40:26.203Z,2.60
2023-03-10T23:42:53.946Z,2.30
2023-03-10T23:45:21.284Z,2.70
2023-03-10T23:47:49.646Z,2.80
2023-03-10T23:50:37.595Z,2.50
2023-03-10T23:53:05.928Z,2.10
2023-03-10T23:55:34.980Z,2.40
2023-03-10T23:58:01.545Z,2.40
